Time;durP1;ratioP1;P1;durP2;ratioP2;P2;SDS_P1;SDS_P2;PMS_P1;PMS_P2;Temp;Humidity;BMP_temperature;BMP_pressure;BME280_temperature;BME280_humidity;BME280_pressure;Samples;Min_cycle;Max_cycle;Signal;HPM_P1;HPM_P2
2024/02/07 00:02:13;;;;;;;;;;;;;;;27.08;37.77;94325.13;5031565;28;7202;-40
2024/02/07 00:04:39;;;;;;;;;;;;;;;27.07;37.70;94325.66;5029772;28;10141;-39
2024/02/07 00:07:37;;;;;;;;;;;;;;;27.07;37.91;94323.66;5014546;28;7087;-38
2024/02/07 00:10:03;;;;;;;;;;;;;;;27.06;38.01;94324.91;4992017;28;7159;-39
2024/02/07 00:12:43;;;;;;;;;;;;;;;27.06;37.90;94313.13;4973000;28;7246;-39
2024/02/07 00:15:39;;;;;;;;;;;;;;;27.06;37.80;94313.88;4990914;28;8832;-39
2024/02/07 00:18:19;;;;;;;;;;;;;;;27.05;37.85;94317.91;4952550;28;7360;-39
2024/02/07 00:20:47;;;;;;;;;;;;;;;27.04;38.08;94308.13;4947154;28;8816;-39
2024/02/07 00:23:13;;;;;;;;;;;;;;;27.06;37.66;94304.84;4951832;29;7176;-39
2024/02/07 00:25:41;;;;;;;;;;;;;;;27.05;38.19;94295.84;4952162;29;7464;-39
2024/02/07 00:28:23;;;;;;;;;;;;;;;27.06;37.56;94297.31;4937054;28;7275;-39
2024/02/07 00:30:52;;;;;;;;;;;;;;;27.04;37.94;94288.81;4924747;29;7274;-39
2024/02/07 00:33:21;;;;;;;;;;;;;;;27.04;37.55;94288.81;4937063;29;7785;-39
2024/02/07 00:36:03;;;;;;;;;;;;;;;27.08;37.69;94299.56;4953308;29;9036;-38
2024/02/07 00:38:51;;;;;;;;;;;;;;;27.04;37.96;94291.56;4955913;28;7425;-39
2024/02/07 00:41:33;;;;;;;;;;;;;;;27.03;37.57;94294.84;4952656;29;7357;-39
2024/02/07 00:44:12;;;;;;;;;;;;;;;27.02;38.41;94291.34;4957970;28;9421;-38
2024/02/07 00:47:13;;;;;;;;;;;;;;;27.02;37.65;94291.34;4961136;28;7027;-38
2024/02/07 00:49:41;;;;;;;;;;;;;;;26.99;37.79;94281.34;4915122;29;7310;-38
2024/02/07 00:52:28;;;;;;;;;;;;;;;27.04;37.71;94283.28;4899316;29;8696;-39
2024/02/07 00:54:56;;;;;;;;;;;;;;;27.02;37.50;94280.31;4955160;28;7281;-38
2024/02/07 00:57:22;;;;;;;;;;;;;;;27.02;37.70;94280.31;4975598;28;9054;-39
2024/02/07 00:59:48;;;;;;;;;;;;;;;27.00;37.65;94271.03;4984969;28;7292;-38
2024/02/07 01:02:14;;;;;;;;;;;;;;;27.00;37.57;94268.28;4959716;28;7267;-40
2024/02/07 01:04:40;;;;;;;;;;;;;;;26.99;37.40;94264.06;4975480;28;7229;-39
2024/02/07 01:07:44;;;;;;;;;;;;;;;27.00;37.57;94274.56;4974336;28;8810;-39
2024/02/07 01:10:14;;;;;;;;;;;;;;;26.99;37.30;94267.53;4933118;29;9088;-39
2024/02/07 01:12:59;;;;;;;;;;;;;;;27.03;37.48;94275.53;4915343;29;7210;-38
2024/02/07 01:15:25;;;;;;;;;;;;;;;27.01;37.46;94278.06;4935975;29;9255;-38
2024/02/07 01:17:52;;;;;;;;;;;;;;;26.99;37.66;94270.28;4936520;29;6978;-39
2024/02/07 01:20:20;;;;;;;;;;;;;;;27.01;37.54;94264.28;4933472;29;7143;-39
2024/02/07 01:22:47;;;;;;;;;;;;;;;27.00;37.41;94263.53;4935942;28;7404;-40
2024/02/07 01:25:13;;;;;;;;;;;;;;;27.00;37.39;94265.53;4975908;28;6945;-41
2024/02/07 01:27:41;;;;;;;;;;;;;;;26.99;37.41;94256.50;4974771;28;7286;-41
2024/02/07 01:30:11;;;;;;;;;;;;;;;26.99;37.33;94253.75;4975351;28;9236;-40
2024/02/07 01:32:41;;;;;;;;;;;;;;;26.98;37.62;94252.25;4976891;28;7064;-40
2024/02/07 01:35:15;;;;;;;;;;;;;;;26.96;37.52;94254.81;4981947;28;7322;-39
2024/02/07 01:38:07;;;;;;;;;;;;;;;26.98;37.32;94240.47;4978631;28;7133;-39
2024/02/07 01:40:50;;;;;;;;;;;;;;;26.97;37.27;94241.75;4993553;28;7236;-41
2024/02/07 01:43:17;;;;;;;;;;;;;;;26.96;37.43;94238.25;5073117;28;9365;-40
2024/02/07 01:45:43;;;;;;;;;;;;;;;26.97;37.18;94239.00;5055670;28;7041;-40
2024/02/07 01:48:10;;;;;;;;;;;;;;;26.95;37.45;94228.44;5050617;28;9063;-40
2024/02/07 01:50:38;;;;;;;;;;;;;;;26.96;37.67;94224.44;5070779;28;9043;-39
2024/02/07 01:53:20;;;;;;;;;;;;;;;26.94;37.61;94224.22;5058810;28;8128;-40
2024/02/07 01:55:56;;;;;;;;;;;;;;;26.97;37.56;94223.16;5073308;28;7082;-40
2024/02/07 01:58:35;;;;;;;;;;;;;;;26.94;37.52;94215.94;5069781;28;7058;-40
2024/02/07 02:01:03;;;;;;;;;;;;;;;26.94;37.67;94218.69;5059994;28;9309;-40
2024/02/07 02:03:31;;;;;;;;;;;;;;;26.90;37.58;94204.47;5073945;28;9171;-40
2024/02/07 02:05:57;;;;;;;;;;;;;;;26.90;37.72;94209.97;5057606;28;7363;-40
2024/02/07 02:08:23;;;;;;;;;;;;;;;26.91;37.51;94197.66;5074272;28;8204;-40
2024/02/07 02:11:04;;;;;;;;;;;;;;;26.90;37.55;94194.16;5057310;28;7244;-41
2024/02/07 02:13:32;;;;;;;;;;;;;;;26.90;37.46;94201.69;5065552;28;7359;-40
2024/02/07 02:16:08;;;;;;;;;;;;;;;26.90;37.46;94188.63;5074344;28;9681;-39
2024/02/07 02:18:37;;;;;;;;;;;;;;;26.91;37.70;94197.66;5051360;28;9208;-40
2024/02/07 02:21:27;;;;;;;;;;;;;;;26.90;37.41;94185.13;5075246;28;7196;-41
2024/02/07 02:24:16;;;;;;;;;;;;;;;26.89;37.26;94183.63;5074702;28;7261;-41
2024/02/07 02:27:14;;;;;;;;;;;;;;;26.90;37.44;94179.63;5043926;28;6997;-39
2024/02/07 02:29:53;;;;;;;;;;;;;;;26.90;37.09;94174.81;5046792;28;9088;-42
2024/02/07 02:32:28;;;;;;;;;;;;;;;26.88;37.57;94180.13;5057033;28;9487;-42
2024/02/07 02:35:06;;;;;;;;;;;;;;;26.88;37.50;94180.13;5057185;28;7232;-42
2024/02/07 02:37:35;;;;;;;;;;;;;;;26.90;37.54;94182.38;5066782;28;7281;-43
2024/02/07 02:40:05;;;;;;;;;;;;;;;26.89;37.64;94183.63;5056607;28;6984;-42
2024/02/07 02:42:33;;;;;;;;;;;;;;;26.87;37.31;94175.13;5057092;28;7010;-43
2024/02/07 02:45:14;;;;;;;;;;;;;;;26.88;37.54;94171.84;5073309;28;9110;-41
2024/02/07 02:47:54;;;;;;;;;;;;;;;26.83;37.21;94169.94;5074299;28;9036;-41
2024/02/07 02:50:25;;;;;;;;;;;;;;;26.89;36.98;94173.34;5055575;28;7242;-41
2024/02/07 02:52:58;;;;;;;;;;;;;;;26.91;37.15;94175.56;5073454;28;9115;-42
2024/02/07 02:55:44;;;;;;;;;;;;;;;26.88;37.21;94166.31;5056701;28;7247;-42
2024/02/07 02:58:11;;;;;;;;;;;;;;;26.88;37.03;94163.56;5057158;28;9068;-41
2024/02/07 03:00:37;;;;;;;;;;;;;;;26.88;37.53;94151.81;5074147;28;8188;-42
2024/02/07 03:03:08;;;;;;;;;;;;;;;26.86;37.49;94152.31;5056680;28;9039;-42
2024/02/07 03:08:29;;;;;;;;;;;;;;;26.84;37.38;94143.06;5074549;28;7617;-42
2024/02/07 03:11:09;;;;;;;;;;;;;;;26.84;37.35;94145.81;5054249;28;7025;-42
2024/02/07 03:14:05;;;;;;;;;;;;;;;26.86;37.48;94137.78;5068099;28;7237;-41
2024/02/07 03:16:45;;;;;;;;;;;;;;;26.84;37.05;94143.06;5015576;28;7438;-42
2024/02/07 03:19:22;;;;;;;;;;;;;;;26.82;37.50;94126.28;5012266;28;6989;-42
2024/02/07 03:22:01;;;;;;;;;;;;;;;26.84;37.33;94124.50;5005520;28;8551;-42
2024/02/07 03:24:42;;;;;;;;;;;;;;;26.84;37.09;94126.50;5011108;28;9834;-43
2024/02/07 03:27:39;;;;;;;;;;;;;;;26.84;37.12;94120.97;5012404;28;7617;-41
2024/02/07 03:30:24;;;;;;;;;;;;;;;26.83;37.60;94125.03;4946701;28;9430;-42
2024/02/07 03:33:12;;;;;;;;;;;;;;;26.82;37.38;94124.28;4946285;28;8790;-43
2024/02/07 03:35:48;;;;;;;;;;;;;;;26.82;37.44;94123.53;4935908;28;7164;-41
2024/02/07 03:38:15;;;;;;;;;;;;;;;26.82;37.31;94118.00;4946500;28;7223;-43
2024/02/07 03:40:45;;;;;;;;;;;;;;;26.80;37.14;94112.28;4947971;28;7011;-43
2024/02/07 03:43:33;;;;;;;;;;;;;;;26.82;37.34;94113.25;4927664;28;7263;-40
2024/02/07 03:46:13;;;;;;;;;;;;;;;26.77;37.61;94100.25;4950894;28;7061;-41
2024/02/07 03:48:42;;;;;;;;;;;;;;;26.80;37.45;94092.94;4952206;28;7339;-41
2024/02/07 03:51:27;;;;;;;;;;;;;;;26.80;37.24;94092.94;4937330;28;9229;-41
2024/02/07 03:54:09;;;;;;;;;;;;;;;26.81;37.57;94097.22;4992500;28;7152;-41
2024/02/07 03:56:39;;;;;;;;;;;;;;;26.78;37.70;94095.50;4995709;28;7075;-40
2024/02/07 03:59:07;;;;;;;;;;;;;;;26.77;37.39;94094.03;4984947;28;7101;-40
2024/02/07 04:01:33;;;;;;;;;;;;;;;26.75;37.48;94086.25;4992921;28;7455;-41
2024/02/07 04:03:59;;;;;;;;;;;;;;;26.78;37.70;94078.94;4986995;28;8995;-40
2024/02/07 04:06:29;;;;;;;;;;;;;;;26.77;37.32;94088.50;5006967;28;9029;-40
2024/02/07 04:09:06;;;;;;;;;;;;;;;26.76;37.56;94073.97;5058148;28;7327;-40
2024/02/07 05:17:14;;;;;;;;;;;;;;;26.73;37.43;94063.25;4877559;29;8471;-39
2024/02/07 05:19:58;;;;;;;;;;;;;;;26.72;37.49;94064.47;4869866;29;9456;-38
2024/02/07 05:22:47;;;;;;;;;;;;;;;26.73;36.62;94066.00;4856363;29;7364;-38
2024/02/07 05:25:22;;;;;;;;;;;;;;;26.70;37.09;94065.00;4880373;29;8785;-39
2024/02/07 05:27:57;;;;;;;;;;;;;;;26.72;37.33;94069.97;4941508;28;7150;-39
2024/02/07 05:30:27;;;;;;;;;;;;;;;26.73;37.43;94071.53;4922498;29;8193;-38
2024/02/07 05:32:54;;;;;;;;;;;;;;;26.74;37.36;94064.72;4932189;28;7362;-38
2024/02/07 05:35:20;;;;;;;;;;;;;;;26.71;37.53;94068.47;4926864;28;7045;-38
2024/02/07 05:37:48;;;;;;;;;;;;;;;26.69;37.27;94060.00;4916087;29;6972;-38
2024/02/07 05:40:15;;;;;;;;;;;;;;;26.72;37.44;94048.66;4933944;29;7209;-39
2024/02/07 05:42:55;;;;;;;;;;;;;;;26.68;37.38;94031.69;4916230;29;9111;-38
2024/02/07 05:45:22;;;;;;;;;;;;;;;26.67;37.46;94035.69;4937302;28;7238;-38
2024/02/07 05:47:57;;;;;;;;;;;;;;;26.66;37.19;94036.97;4960190;28;8672;-39
2024/02/07 05:50:31;;;;;;;;;;;;;;;26.68;37.37;94044.72;4972971;28;9023;-39
2024/02/07 05:52:57;;;;;;;;;;;;;;;26.67;37.73;94040.47;5019163;28;7274;-40
2024/02/07 05:55:24;;;;;;;;;;;;;;;26.70;37.45;94044.94;5051567;28;9136;-40
2024/02/07 05:57:52;;;;;;;;;;;;;;;26.69;37.85;94043.44;5052134;28;7076;-38
2024/02/07 06:00:18;;;;;;;;;;;;;;;26.70;37.45;94045.69;5068024;28;8772;-38
2024/02/07 06:02:44;;;;;;;;;;;;;;;26.70;37.77;94050.47;5071413;28;6987;-56
2024/02/07 06:05:11;;;;;;;;;;;;;;;26.73;37.32;94049.44;5074127;28;7234;-56
2024/02/07 06:07:50;;;;;;;;;;;;;;;26.74;37.11;94050.91;5057577;28;7283;-56
2024/02/07 06:10:26;;;;;;;;;;;;;;;26.72;37.13;94048.66;5076251;28;6958;-56
2024/02/07 06:13:05;;;;;;;;;;;;;;;26.72;37.49;94042.41;5068987;28;7017;-56
2024/02/07 06:15:33;;;;;;;;;;;;;;;26.68;37.20;94053.00;5052078;28;9133;-56
2024/02/07 06:18:18;;;;;;;;;;;;;;;26.67;36.94;94048.75;5057748;28;7311;-56
2024/02/07 06:20:50;;;;;;;;;;;;;;;26.68;36.60;94044.72;5074735;28;7341;-56
2024/02/07 06:23:34;;;;;;;;;;;;;;;26.65;36.79;94054.03;5073095;28;7219;-56
2024/02/07 06:26:00;;;;;;;;;;;;;;;26.65;36.84;94048.53;5070331;28;7653;-56
2024/02/07 06:28:26;;;;;;;;;;;;;;;26.65;36.60;94048.53;5051038;28;9060;-56
2024/02/07 06:30:54;;;;;;;;;;;;;;;26.66;37.30;94048.00;5066968;28;7231;-56
2024/02/07 06:33:39;;;;;;;;;;;;;;;26.68;37.21;94048.22;5072489;28;7373;-56
2024/02/07 06:36:11;;;;;;;;;;;;;;;26.69;37.18;94043.44;5057068;28;7444;-56
2024/02/07 06:38:40;;;;;;;;;;;;;;;26.71;36.63;94057.44;5074234;28;7286;-56
2024/02/07 06:41:17;;;;;;;;;;;;;;;26.71;36.85;94051.94;5055606;28;9068;-56
2024/02/07 06:43:43;;;;;;;;;;;;;;;26.70;36.93;94058.72;5057610;28;7295;-56
2024/02/07 06:46:19;;;;;;;;;;;;;;;26.70;36.73;94061.50;5070808;28;9302;-56
2024/02/07 06:49:04;;;;;;;;;;;;;;;26.66;36.66;94053.53;5072787;28;9075;-57
2024/02/07 06:52:00;;;;;;;;;;;;;;;26.66;36.73;94047.25;5070461;28;7257;-56
2024/02/07 06:54:26;;;;;;;;;;;;;;;26.67;36.94;94037.69;5012792;28;7242;-56
2024/02/07 06:56:54;;;;;;;;;;;;;;;26.68;36.90;94041.97;5010398;28;9192;-56
2024/02/07 06:59:48;;;;;;;;;;;;;;;26.66;37.06;94039.00;5000847;28;7010;-56
2024/02/07 07:02:14;;;;;;;;;;;;;;;26.68;36.83;94044.72;4959888;28;9136;-56
2024/02/07 07:04:41;;;;;;;;;;;;;;;26.69;36.64;94038.66;4952951;28;7337;-56
2024/02/07 07:07:08;;;;;;;;;;;;;;;26.67;37.06;94029.44;4954174;28;7097;-56
2024/02/07 07:09:48;;;;;;;;;;;;;;;26.67;36.98;94026.66;4953739;28;8734;-56
2024/02/07 07:12:16;;;;;;;;;;;;;;;26.68;36.92;94031.69;4953800;28;7284;-39
2024/02/07 07:15:13;;;;;;;;;;;;;;;26.67;36.76;94027.41;4937929;28;7265;-39
2024/02/07 07:17:58;;;;;;;;;;;;;;;26.66;36.59;94025.94;4932993;28;7216;-38
2024/02/07 07:20:30;;;;;;;;;;;;;;;26.66;37.19;94011.41;4949483;28;7255;-40
2024/02/07 07:22:59;;;;;;;;;;;;;;;26.69;36.97;94015.84;4946793;28;6861;-39
2024/02/07 07:25:26;;;;;;;;;;;;;;;26.68;36.78;94026.16;4937135;28;7212;-38
2024/02/07 07:27:55;;;;;;;;;;;;;;;26.66;36.90;94039.00;4925948;29;9232;-38
2024/02/07 07:30:21;;;;;;;;;;;;;;;26.66;36.93;94039.75;4958375;28;7280;-38
2024/02/07 07:32:49;;;;;;;;;;;;;;;26.66;36.76;94039.75;4990090;28;7166;-38
2024/02/07 07:35:15;;;;;;;;;;;;;;;26.64;36.73;94042.25;4966433;28;7507;-38
2024/02/07 07:37:45;;;;;;;;;;;;;;;26.64;36.75;94039.50;4966352;28;9894;-38
2024/02/07 07:40:11;;;;;;;;;;;;;;;26.62;37.07;94033.03;5025274;28;7266;-38
2024/02/07 07:42:43;;;;;;;;;;;;;;;26.63;37.01;94034.50;5004046;28;9072;-38
2024/02/07 07:45:09;;;;;;;;;;;;;;;26.62;37.00;94044.81;5013116;28;7232;-39
2024/02/07 07:47:39;;;;;;;;;;;;;;;26.65;36.74;94054.03;5018428;28;6969;-38
2024/02/07 07:50:10;;;;;;;;;;;;;;;26.64;36.89;94041.53;5003927;28;7345;-40
2024/02/07 07:52:48;;;;;;;;;;;;;;;26.61;37.29;94037.06;5010832;28;9054;-39
2024/02/07 07:55:19;;;;;;;;;;;;;;;26.62;37.45;94027.53;5053961;28;7301;-39
2024/02/07 07:57:47;;;;;;;;;;;;;;;26.61;37.40;94032.28;5056069;28;8750;-39
2024/02/07 08:00:18;;;;;;;;;;;;;;;26.65;37.04;94020.94;5052147;28;9299;-38
2024/02/07 08:02:44;;;;;;;;;;;;;;;26.66;36.81;94022.44;5069331;28;8010;-38
2024/02/07 08:05:12;;;;;;;;;;;;;;;26.63;37.32;94029.75;5063636;28;7222;-38
2024/02/07 08:07:43;;;;;;;;;;;;;;;26.65;37.52;94016.16;5073002;28;9465;-40
2024/02/07 08:10:40;;;;;;;;;;;;;;;26.64;37.16;94014.66;5073136;28;6996;-39
2024/02/07 08:13:22;;;;;;;;;;;;;;;26.64;37.05;94014.66;4999110;28;8526;-39
2024/02/07 08:16:02;;;;;;;;;;;;;;;26.63;37.06;94009.69;5003924;28;7254;-39
2024/02/07 08:18:53;;;;;;;;;;;;;;;26.62;37.01;94003.41;5013956;28;7262;-38
2024/02/07 08:21:44;;;;;;;;;;;;;;;26.64;37.20;94003.63;5019815;28;7500;-40
2024/02/07 08:24:10;;;;;;;;;;;;;;;26.64;36.56;94008.44;5011974;28;7247;-40
2024/02/07 08:26:36;;;;;;;;;;;;;;;26.62;37.16;94010.97;5008018;28;9464;-40
2024/02/07 08:29:13;;;;;;;;;;;;;;;26.61;37.02;94012.22;5023348;28;6982;-41
2024/02/07 08:31:53;;;;;;;;;;;;;;;26.58;37.11;94016.78;5010277;28;9251;-40
2024/02/07 08:34:33;;;;;;;;;;;;;;;26.60;37.09;94024.56;5009613;28;7277;-40
2024/02/07 08:37:00;;;;;;;;;;;;;;;26.60;36.68;94013.50;5019919;28;6971;-40
2024/02/07 08:39:28;;;;;;;;;;;;;;;26.56;36.91;94008.28;4989002;28;7277;-40
2024/02/07 08:42:19;;;;;;;;;;;;;;;26.62;37.37;94013.72;5026090;28;8686;-40
2024/02/07 08:44:46;;;;;;;;;;;;;;;26.62;36.92;94010.97;5031318;28;7091;-40
2024/02/07 08:47:20;;;;;;;;;;;;;;;26.58;36.97;94016.78;5030350;28;9086;-41
2024/02/07 08:49:46;;;;;;;;;;;;;;;26.61;36.78;94020.50;5022646;28;9150;-41
2024/02/07 08:52:14;;;;;;;;;;;;;;;26.61;37.34;94021.25;5037371;28;9074;-40
2024/02/07 08:54:41;;;;;;;;;;;;;;;26.61;36.92;94015.75;5051460;28;9120;-40
2024/02/07 08:57:13;;;;;;;;;;;;;;;26.65;37.02;94015.41;5064572;28;7247;-40
2024/02/07 08:59:44;;;;;;;;;;;;;;;26.63;37.21;94013.19;5044169;28;6996;-40
2024/02/07 09:02:12;;;;;;;;;;;;;;;26.61;37.33;94012.22;5067559;28;9333;-40
2024/02/07 09:04:42;;;;;;;;;;;;;;;26.60;37.36;94010.75;5052742;28;7489;-40
2024/02/07 09:07:10;;;;;;;;;;;;;;;26.62;37.46;94010.97;5069114;28;7282;-41
2024/02/07 09:09:39;;;;;;;;;;;;;;;26.63;37.46;94010.44;5059994;28;7284;-41
2024/02/07 09:12:08;;;;;;;;;;;;;;;26.61;37.67;94015.00;5069002;28;7334;-44
2024/02/07 09:14:37;;;;;;;;;;;;;;;26.61;37.30;94006.72;5070720;28;7233;-40
2024/02/07 09:17:05;;;;;;;;;;;;;;;26.62;37.35;94008.22;5056058;28;8791;-41
2024/02/07 09:19:43;;;;;;;;;;;;;;;26.64;37.70;94005.66;5058301;28;7152;-40
2024/02/07 09:22:20;;;;;;;;;;;;;;;26.64;37.76;94005.66;5066872;28;7035;-40
2024/02/07 09:24:50;;;;;;;;;;;;;;;26.60;37.66;94005.97;5073716;28;7079;-40
2024/02/07 09:27:42;;;;;;;;;;;;;;;26.62;37.71;94002.69;5059541;28;7263;-41
2024/02/07 09:30:24;;;;;;;;;;;;;;;26.64;37.27;93998.13;5010046;28;7548;-40
2024/02/07 09:32:50;;;;;;;;;;;;;;;26.64;37.86;93992.59;4998095;28;7192;-55
2024/02/07 09:35:27;;;;;;;;;;;;;;;26.65;37.46;93985.06;4997430;28;7757;-55
2024/02/07 09:38:03;;;;;;;;;;;;;;;26.67;37.92;93985.28;4997727;28;7208;-55
2024/02/07 09:40:32;;;;;;;;;;;;;;;26.64;37.80;93981.56;5003236;28;9014;-55
2024/02/07 09:43:01;;;;;;;;;;;;;;;26.65;37.52;93979.56;5008179;28;9789;-55
2024/02/07 09:45:35;;;;;;;;;;;;;;;26.64;37.53;93976.06;4994135;28;8806;-56
2024/02/07 09:48:21;;;;;;;;;;;;;;;26.66;37.70;93975.53;5009022;28;7020;-55
2024/02/07 09:50:50;;;;;;;;;;;;;;;26.67;37.13;93974.25;4992564;28;9035;-56
2024/02/07 09:53:20;;;;;;;;;;;;;;;26.69;37.18;93974.47;5013487;28;7250;-56
2024/02/07 09:55:49;;;;;;;;;;;;;;;26.69;37.66;93968.94;5013745;28;7056;-56
2024/02/07 09:58:25;;;;;;;;;;;;;;;26.68;37.34;93964.72;4997408;28;7176;-56
2024/02/07 10:00:54;;;;;;;;;;;;;;;26.67;37.14;93957.69;5001345;28;7201;-55
2024/02/07 10:03:25;;;;;;;;;;;;;;;26.66;37.56;93956.22;5006645;28;7521;-55
2024/02/07 10:05:55;;;;;;;;;;;;;;;26.67;37.12;93958.44;4997818;28;7147;-56
2024/02/07 10:08:23;;;;;;;;;;;;;;;26.70;36.79;93962.19;5060277;28;7128;-55
2024/02/07 10:10:51;;;;;;;;;;;;;;;26.69;37.49;93952.41;5060475;28;7061;-56
2024/02/07 10:13:18;;;;;;;;;;;;;;;26.70;37.06;93951.13;5051069;28;8255;-55
2024/02/07 10:15:48;;;;;;;;;;;;;;;26.71;37.33;93947.09;5067911;28;7052;-55
2024/02/07 10:18:22;;;;;;;;;;;;;;;26.68;37.35;93935.13;5057339;28;7358;-55
2024/02/07 10:21:04;;;;;;;;;;;;;;;26.73;37.10;93939.09;5063616;28;9104;-55
2024/02/07 10:23:31;;;;;;;;;;;;;;;26.73;37.17;93941.84;5073531;28;7007;-55
2024/02/07 10:25:59;;;;;;;;;;;;;;;26.73;37.28;93942.56;5066444;28;7385;-55
2024/02/07 10:28:57;;;;;;;;;;;;;;;26.74;36.99;93938.56;5060982;28;8707;-55
2024/02/07 10:31:34;;;;;;;;;;;;;;;26.74;37.23;93944.06;5050243;28;7477;-55
2024/02/07 10:34:30;;;;;;;;;;;;;;;26.74;36.99;93943.31;5049570;28;6993;-55
2024/02/07 10:37:09;;;;;;;;;;;;;;;26.75;37.54;93937.25;5054710;28;7031;-55
2024/02/07 10:39:35;;;;;;;;;;;;;;;26.74;37.42;93935.78;5053161;28;9856;-55
2024/02/07 10:42:07;;;;;;;;;;;;;;;26.76;36.74;93927.72;5056838;28;7258;-55
2024/02/07 10:44:36;;;;;;;;;;;;;;;26.77;37.29;93929.19;5057496;28;7239;-56
2024/02/07 10:47:08;;;;;;;;;;;;;;;26.76;37.40;93921.47;5054229;28;7268;-55
2024/02/07 10:50:01;;;;;;;;;;;;;;;26.77;37.50;93928.47;5068475;28;7277;-55
2024/02/07 10:52:43;;;;;;;;;;;;;;;26.79;36.93;93914.88;5025349;28;6994;-37
2024/02/07 10:55:14;;;;;;;;;;;;;;;26.77;37.07;93901.59;5002998;28;6992;-37
2024/02/07 10:57:57;;;;;;;;;;;;;;;26.77;37.00;93900.88;5028629;28;8426;-37
2024/02/07 11:00:24;;;;;;;;;;;;;;;26.77;37.20;93904.38;5019064;28;7477;-37
2024/02/07 11:02:52;;;;;;;;;;;;;;;26.79;37.86;93898.34;5015851;28;7007;-37
2024/02/07 11:05:21;;;;;;;;;;;;;;;26.79;38.08;93895.56;5032477;28;7325;-37
2024/02/07 11:07:48;;;;;;;;;;;;;;;26.77;37.57;93885.06;5020143;28;7780;-37
2024/02/07 11:10:16;;;;;;;;;;;;;;;26.78;38.30;93885.81;5026632;28;8241;-37
2024/02/07 11:13:12;;;;;;;;;;;;;;;26.77;38.45;93879.53;5016348;28;6954;-37
2024/02/07 11:15:49;;;;;;;;;;;;;;;26.78;38.80;93885.81;4986011;28;7820;-37
2024/02/07 11:18:16;;;;;;;;;;;;;;;26.72;39.35;93871.34;4984878;28;9073;-37
2024/02/07 11:20:53;;;;;;;;;;;;;;;26.69;38.90;93864.88;4971823;28;7227;-37
2024/02/07 11:23:31;;;;;;;;;;;;;;;26.71;38.81;93872.59;4991124;28;7340;-37
2024/02/07 11:26:28;;;;;;;;;;;;;;;26.75;38.73;93870.31;4979221;28;8879;-37
2024/02/07 11:29:05;;;;;;;;;;;;;;;26.77;38.82;93862.25;4939737;28;7080;-37
2024/02/07 11:31:32;;;;;;;;;;;;;;;26.78;38.65;93853.44;4937351;28;9396;-37
2024/02/07 11:34:02;;;;;;;;;;;;;;;26.78;38.57;93847.91;4955182;28;7251;-37
2024/02/07 11:36:39;;;;;;;;;;;;;;;26.79;38.79;93843.91;4952547;28;9027;-37
2024/02/07 11:39:14;;;;;;;;;;;;;;;26.81;38.69;93835.09;4951970;28;8777;-37
2024/02/07 11:41:45;;;;;;;;;;;;;;;26.79;38.73;93832.88;4934941;28;6988;-37
2024/02/07 11:44:28;;;;;;;;;;;;;;;26.77;38.23;93829.88;4958311;28;9050;-37
2024/02/07 11:46:55;;;;;;;;;;;;;;;26.78;39.02;93825.09;4960694;28;9122;-37
2024/02/07 11:49:30;;;;;;;;;;;;;;;26.79;38.80;93821.81;4924559;28;7248;-37
2024/02/07 11:52:14;;;;;;;;;;;;;;;26.84;38.36;93815.44;4969587;28;7288;-37
2024/02/07 11:55:02;;;;;;;;;;;;;;;26.85;38.68;93808.66;4976585;28;7089;-37
2024/02/07 11:57:32;;;;;;;;;;;;;;;26.83;38.53;93800.16;4977024;28;9058;-37
2024/02/07 12:00:12;;;;;;;;;;;;;;;26.84;38.67;93795.38;4981641;28;7084;-37
2024/02/07 12:02:38;;;;;;;;;;;;;;;26.85;39.04;93791.34;4975212;28;7155;-38
2024/02/07 12:05:11;;;;;;;;;;;;;;;26.84;38.71;93784.34;4992154;28;7194;-39
2024/02/07 12:07:47;;;;;;;;;;;;;;;26.86;38.58;93781.81;5053886;28;9100;-39
2024/02/07 12:10:21;;;;;;;;;;;;;;;26.86;38.49;93774.25;5069646;28;8686;-39
2024/02/07 12:12:51;;;;;;;;;;;;;;;26.83;38.58;93758.78;5039898;28;8567;-39
2024/02/07 12:15:44;;;;;;;;;;;;;;;26.86;38.43;93768.72;5044677;28;9272;-41
2024/02/07 12:18:11;;;;;;;;;;;;;;;26.84;38.17;93751.22;4977224;28;7377;-40
2024/02/07 12:21:10;;;;;;;;;;;;;;;26.85;37.80;93750.72;4983741;28;7176;-41
2024/02/07 12:23:51;;;;;;;;;;;;;;;26.84;38.30;93749.22;4903406;29;7251;-39
2024/02/07 12:26:23;;;;;;;;;;;;;;;26.84;38.35;93745.69;4896549;29;7288;-39
2024/02/07 12:28:58;;;;;;;;;;;;;;;26.80;38.29;93734.25;4913012;29;9070;-41
2024/02/07 12:31:44;;;;;;;;;;;;;;;26.84;38.37;93737.44;4892652;29;9066;-40
2024/02/07 12:34:24;;;;;;;;;;;;;;;26.82;38.28;93726.19;4892898;29;7251;-39
2024/02/07 12:36:55;;;;;;;;;;;;;;;26.84;37.95;93729.16;4906922;29;9394;-39
2024/02/07 12:39:21;;;;;;;;;;;;;;;26.83;37.60;93713.88;4901393;29;7233;-39
2024/02/07 12:41:47;;;;;;;;;;;;;;;26.85;37.76;93719.59;4917947;29;7103;-38
2024/02/07 12:44:25;;;;;;;;;;;;;;;26.84;37.76;93716.09;4920406;29;7180;-39
2024/02/07 12:46:53;;;;;;;;;;;;;;;26.84;37.75;93709.84;4901399;29;9584;-39
2024/02/07 12:49:40;;;;;;;;;;;;;;;26.85;37.87;93708.56;4919822;29;8960;-39
2024/02/07 12:52:40;;;;;;;;;;;;;;;26.86;37.90;93697.00;4912589;29;7395;-39
2024/02/07 12:55:15;;;;;;;;;;;;;;;26.84;37.75;93691.25;4884987;29;7480;-39
2024/02/07 12:58:12;;;;;;;;;;;;;;;26.84;37.57;93693.28;4902245;29;7000;-39
2024/02/07 13:01:02;;;;;;;;;;;;;;;26.85;37.97;93686.50;4950888;28;9547;-40
2024/02/07 13:03:28;;;;;;;;;;;;;;;26.86;37.21;93682.47;4948836;28;7110;-39
2024/02/07 13:05:54;;;;;;;;;;;;;;;26.83;37.76;93678.00;4945234;28;7278;-40
2024/02/07 13:08:21;;;;;;;;;;;;;;;26.87;37.52;93683.94;4935091;28;7029;-41
2024/02/07 13:10:47;;;;;;;;;;;;;;;26.89;38.15;93675.88;4949953;28;7117;-41
2024/02/07 13:13:16;;;;;;;;;;;;;;;26.91;37.75;93678.81;4943709;28;7224;-56
2024/02/07 13:15:44;;;;;;;;;;;;;;;26.92;37.90;93677.56;4945487;28;9263;-56
2024/02/07 13:18:16;;;;;;;;;;;;;;;26.90;37.84;93669.09;4950232;28;7331;-56
2024/02/07 13:20:52;;;;;;;;;;;;;;;26.95;37.67;93676.47;4949385;28;7225;-55
2024/02/07 13:23:23;;;;;;;;;;;;;;;26.93;37.66;93668.00;4938603;28;7266;-56
2024/02/07 13:25:57;;;;;;;;;;;;;;;26.92;37.66;93670.00;4938258;28;8831;-55
2024/02/07 13:28:36;;;;;;;;;;;;;;;26.92;37.66;93670.00;4944738;28;8062;-55
2024/02/07 13:31:04;;;;;;;;;;;;;;;26.88;37.75;93657.84;4983897;28;9041;-55
2024/02/07 13:33:43;;;;;;;;;;;;;;;26.88;38.00;93658.56;5014127;28;7207;-55
2024/02/07 13:36:10;;;;;;;;;;;;;;;26.88;37.66;93660.59;5019024;28;8675;-56
2024/02/07 13:38:42;;;;;;;;;;;;;;;26.87;37.80;93656.34;5053596;28;7344;-55
2024/02/07 13:41:09;;;;;;;;;;;;;;;26.86;38.11;93652.13;5056043;28;7470;-55
2024/02/07 13:43:37;;;;;;;;;;;;;;;26.84;37.72;93649.88;5056900;28;7328;-55
2024/02/07 13:46:03;;;;;;;;;;;;;;;26.86;37.96;93652.13;5050093;28;7458;-55
2024/02/07 13:48:29;;;;;;;;;;;;;;;26.88;37.69;93644.03;5071468;28;7679;-55
2024/02/07 13:50:58;;;;;;;;;;;;;;;26.90;38.18;93653.25;5061716;28;7949;-55
2024/02/07 13:53:24;;;;;;;;;;;;;;;26.90;37.61;93649.75;5056620;28;7223;-55
2024/02/07 13:55:50;;;;;;;;;;;;;;;26.89;37.67;93637.97;5073218;28;6992;-55
2024/02/07 13:58:16;;;;;;;;;;;;;;;26.87;37.71;93634.28;5056885;28;7269;-55
2024/02/07 14:00:46;;;;;;;;;;;;;;;26.85;38.02;93632.06;5058943;28;7206;-55
2024/02/07 14:03:15;;;;;;;;;;;;;;;26.88;37.72;93635.75;5075619;28;9019;-55
2024/02/07 14:05:41;;;;;;;;;;;;;;;26.88;38.10;93627.47;5071094;28;7384;-55
2024/02/07 14:08:07;;;;;;;;;;;;;;;26.87;37.98;93631.50;5038252;28;9604;-55
2024/02/07 14:10:35;;;;;;;;;;;;;;;26.88;37.42;93630.25;5070011;28;7045;-55
2024/02/07 14:13:04;;;;;;;;;;;;;;;26.85;37.71;93621.03;5048405;28;9094;-55
2024/02/07 14:15:37;;;;;;;;;;;;;;;26.87;37.88;93612.19;5056557;28;9096;-55
2024/02/07 14:18:04;;;;;;;;;;;;;;;26.87;37.89;93612.19;5045653;28;8711;-55
2024/02/07 14:20:30;;;;;;;;;;;;;;;26.84;37.82;93605.72;5051648;28;7242;-55
2024/02/07 14:23:03;;;;;;;;;;;;;;;26.87;37.55;93609.44;5070986;28;8974;-37
2024/02/07 14:25:45;;;;;;;;;;;;;;;26.83;37.40;93607.03;5065006;28;7046;-37
2024/02/07 14:28:12;;;;;;;;;;;;;;;26.83;37.74;93609.78;5057505;28;7307;-37
2024/02/07 14:30:44;;;;;;;;;;;;;;;26.83;37.75;93603.50;5057350;28;7097;-37
2024/02/07 14:33:13;;;;;;;;;;;;;;;26.84;37.71;93602.22;5038099;28;7006;-37
2024/02/07 14:35:40;;;;;;;;;;;;;;;26.84;38.26;93599.47;5058023;28;6946;-37
2024/02/07 14:38:06;;;;;;;;;;;;;;;26.84;37.60;93602.97;5072796;28;7841;-37
2024/02/07 14:40:51;;;;;;;;;;;;;;;26.82;37.36;93588.22;5046023;28;7391;-37
2024/02/07 14:43:24;;;;;;;;;;;;;;;26.87;37.77;93592.88;5055426;28;7475;-37